sensor_id;sensor_type;location;lat;lon;timestamp;pressure;altitude;pressure_sealevel;temperature;humidity
32638;BME280;19045;52.268;10.506;2022-12-24T00:00:10;99370.25;;;6.58;100.00
32638;BME280;19045;52.268;10.506;2022-12-24T00:02:37;99372.13;;;6.57;100.00
32638;BME280;19045;52.268;10.506;2022-12-24T00:05:05;99367.31;;;6.54;100.00
32638;BME280;19045;52.268;10.506;2022-12-24T00:07:31;99364.38;;;6.56;100.00
32638;BME280;19045;52.268;10.506;2022-12-24T00:09:58;99354.25;;;6.58;100.00
32638;BME280;19045;52.268;10.506;2022-12-24T00:12:26;99362.56;;;6.61;100.00
32638;BME280;19045;52.268;10.506;2022-12-24T00:14:53;99361.97;;;6.54;100.00
32638;BME280;19045;52.268;10.506;2022-12-24T00:17:19;99372.06;;;6.47;100.00
32638;BME280;19045;52.268;10.506;2022-12-24T00:19:46;99380.88;;;6.48;100.00
32638;BME280;19045;52.268;10.506;2022-12-24T00:22:12;99380.34;;;6.51;100.00
32638;BME280;19045;52.268;10.506;2022-12-24T00:24:39;99379.84;;;6.54;100.00
32638;BME280;19045;52.268;10.506;2022-12-24T00:27:06;99377.16;;;6.54;100.00
32638;BME280;19045;52.268;10.506;2022-12-24T00:29:34;99376.94;;;6.55;100.00
32638;BME280;19045;52.268;10.506;2022-12-24T00:32:00;99382.78;;;6.52;100.00
32638;BME280;19045;52.268;10.506;2022-12-24T00:34:27;99384.34;;;6.53;100.00
32638;BME280;19045;52.268;10.506;2022-12-24T00:36:53;99372.41;;;6.56;100.00
32638;BME280;19045;52.268;10.506;2022-12-24T00:39:20;99370.03;;;6.59;100.00
32638;BME280;19045;52.268;10.506;2022-12-24T00:41:46;99380.69;;;6.59;100.00
32638;BME280;19045;52.268;10.506;2022-12-24T00:44:13;99383.63;;;6.63;100.00
32638;BME280;19045;52.268;10.506;2022-12-24T00:46:41;99390.00;;;6.57;100.00
32638;BME280;19045;52.268;10.506;2022-12-24T00:49:10;99388.41;;;6.56;100.00
32638;BME280;19045;52.268;10.506;2022-12-24T00:51:37;99399.63;;;6.58;100.00
32638;BME280;19045;52.268;10.506;2022-12-24T00:54:05;99414.50;;;6.54;100.00
32638;BME280;19045;52.268;10.506;2022-12-24T00:56:32;99412.94;;;6.53;100.00
32638;BME280;19045;52.268;10.506;2022-12-24T00:58:58;99404.34;;;6.51;100.00
32638;BME280;19045;52.268;10.506;2022-12-24T01:01:25;99407.31;;;6.54;100.00
32638;BME280;19045;52.268;10.506;2022-12-24T01:03:53;99400.63;;;6.52;100.00
32638;BME280;19045;52.268;10.506;2022-12-24T01:06:40;99407.50;;;6.43;100.00
32638;BME280;19045;52.268;10.506;2022-12-24T01:09:06;99398.19;;;6.45;100.00
32638;BME280;19045;52.268;10.506;2022-12-24T01:11:33;99407.81;;;6.46;100.00
32638;BME280;19045;52.268;10.506;2022-12-24T01:13:59;99408.06;;;6.45;100.00
32638;BME280;19045;52.268;10.506;2022-12-24T01:16:26;99414.72;;;6.47;100.00
32638;BME280;19045;52.268;10.506;2022-12-24T01:18:54;99415.47;;;6.38;100.00
32638;BME280;19045;52.268;10.506;2022-12-24T01:21:20;99421.06;;;6.36;100.00
32638;BME280;19045;52.268;10.506;2022-12-24T01:23:47;99424.56;;;6.42;100.00
32638;BME280;19045;52.268;10.506;2022-12-24T01:26:14;99436.59;;;6.44;100.00
32638;BME280;19045;52.268;10.506;2022-12-24T01:28:41;99434.97;;;6.43;100.00
32638;BME280;19045;52.268;10.506;2022-12-24T01:31:12;99435.25;;;6.42;100.00
32638;BME280;19045;52.268;10.506;2022-12-24T01:33:39;99440.59;;;6.47;100.00
32638;BME280;19045;52.268;10.506;2022-12-24T01:36:07;99441.72;;;6.51;100.00
32638;BME280;19045;52.268;10.506;2022-12-24T01:38:34;99440.09;;;6.50;100.00
32638;BME280;19045;52.268;10.506;2022-12-24T01:41:01;99450.53;;;6.51;100.00
32638;BME280;19045;52.268;10.506;2022-12-24T01:43:45;99453.19;;;6.51;100.00
32638;BME280;19045;52.268;10.506;2022-12-24T01:46:15;99456.66;;;6.52;100.00
32638;BME280;19045;52.268;10.506;2022-12-24T01:48:46;99445.72;;;6.53;100.00
32638;BME280;19045;52.268;10.506;2022-12-24T01:51:21;99436.59;;;6.44;100.00
32638;BME280;19045;52.268;10.506;2022-12-24T01:53:52;99445.69;;;6.48;100.00
32638;BME280;19045;52.268;10.506;2022-12-24T01:56:22;99444.34;;;6.46;100.00
32638;BME280;19045;52.268;10.506;2022-12-24T01:58:55;99444.84;;;6.43;100.00
32638;BME280;19045;52.268;10.506;2022-12-24T02:01:23;99443.78;;;6.44;100.00
32638;BME280;19045;52.268;10.506;2022-12-24T02:03:49;99443.53;;;6.45;100.00
32638;BME280;19045;52.268;10.506;2022-12-24T02:06:19;99446.50;;;6.49;100.00
32638;BME280;19045;52.268;10.506;2022-12-24T02:08:47;99453.94;;;6.47;100.00
32638;BME280;19045;52.268;10.506;2022-12-24T02:11:15;99449.69;;;6.46;100.00
32638;BME280;19045;52.268;10.506;2022-12-24T02:13:44;99457.19;;;6.49;100.00
32638;BME280;19045;52.268;10.506;2022-12-24T02:16:20;99468.09;;;6.47;100.00
32638;BME280;19045;52.268;10.506;2022-12-24T02:18:57;99464.66;;;6.52;100.00
32638;BME280;19045;52.268;10.506;2022-12-24T02:21:37;99464.66;;;6.52;100.00
32638;BME280;19045;52.268;10.506;2022-12-24T02:24:24;99470.31;;;6.55;100.00
32638;BME280;19045;52.268;10.506;2022-12-24T02:27:08;99467.88;;;6.54;100.00
32638;BME280;19045;52.268;10.506;2022-12-24T02:29:47;99477.50;;;6.55;100.00
32638;BME280;19045;52.268;10.506;2022-12-24T02:32:22;99486.81;;;6.52;100.00
32638;BME280;19045;52.268;10.506;2022-12-24T02:34:52;99484.38;;;6.51;100.00
32638;BME280;19045;52.268;10.506;2022-12-24T02:37:25;99489.22;;;6.54;100.00
32638;BME280;19045;52.268;10.506;2022-12-24T02:39:56;99483.06;;;6.53;100.00
32638;BME280;19045;52.268;10.506;2022-12-24T02:42:26;99466.31;;;6.58;100.00
32638;BME280;19045;52.268;10.506;2022-12-24T02:45:02;99486.41;;;6.65;100.00
32638;BME280;19045;52.268;10.506;2022-12-24T02:47:30;99479.63;;;6.53;100.00
32638;BME280;19045;52.268;10.506;2022-12-24T02:50:00;99476.19;;;6.57;100.00
32638;BME280;19045;52.268;10.506;2022-12-24T02:52:28;99480.97;;;6.55;100.00
32638;BME280;19045;52.268;10.506;2022-12-24T02:54:55;99487.44;;;6.64;100.00
32638;BME280;19045;52.268;10.506;2022-12-24T02:57:27;99481.47;;;6.52;100.00
32638;BME280;19045;52.268;10.506;2022-12-24T03:00:02;99487.31;;;6.49;100.00
32638;BME280;19045;52.268;10.506;2022-12-24T03:02:42;99484.69;;;6.54;100.00
32638;BME280;19045;52.268;10.506;2022-12-24T03:05:19;99487.03;;;6.46;100.00
32638;BME280;19045;52.268;10.506;2022-12-24T03:07:56;99488.69;;;6.52;100.00
32638;BME280;19045;52.268;10.506;2022-12-24T03:10:29;99487.25;;;6.39;100.00
32638;BME280;19045;52.268;10.506;2022-12-24T03:13:01;99490.97;;;6.43;100.00
32638;BME280;19045;52.268;10.506;2022-12-24T03:15:31;99492.88;;;6.43;100.00
32638;BME280;19045;52.268;10.506;2022-12-24T03:18:00;99499.56;;;6.45;100.00
32638;BME280;19045;52.268;10.506;2022-12-24T03:20:31;99492.88;;;6.43;100.00
32638;BME280;19045;52.268;10.506;2022-12-24T03:22:59;99491.69;;;6.60;100.00
32638;BME280;19045;52.268;10.506;2022-12-24T03:25:26;99489.09;;;6.70;100.00
32638;BME280;19045;52.268;10.506;2022-12-24T03:27:54;99498.72;;;6.71;100.00
32638;BME280;19045;52.268;10.506;2022-12-24T03:30:21;99509.41;;;6.76;100.00
32638;BME280;19045;52.268;10.506;2022-12-24T03:32:50;99507.06;;;6.80;100.00
32638;BME280;19045;52.268;10.506;2022-12-24T03:35:16;99511.56;;;6.74;100.00
32638;BME280;19045;52.268;10.506;2022-12-24T03:37:43;99511.34;;;6.81;100.00
32638;BME280;19045;52.268;10.506;2022-12-24T03:40:10;99521.56;;;6.89;100.00
32638;BME280;19045;52.268;10.506;2022-12-24T03:42:37;99526.41;;;6.97;100.00
32638;BME280;19045;52.268;10.506;2022-12-24T03:45:04;99525.16;;;7.10;100.00
32638;BME280;19045;52.268;10.506;2022-12-24T03:47:31;99534.88;;;7.26;100.00
32638;BME280;19045;52.268;10.506;2022-12-24T03:49:59;99537.84;;;7.24;100.00
32638;BME280;19045;52.268;10.506;2022-12-24T03:52:26;99535.28;;;7.45;100.00
32638;BME280;19045;52.268;10.506;2022-12-24T03:54:52;99541.22;;;7.57;100.00
32638;BME280;19045;52.268;10.506;2022-12-24T03:57:19;99538.13;;;7.75;100.00
32638;BME280;19045;52.268;10.506;2022-12-24T03:59:45;99543.25;;;7.87;100.00
32638;BME280;19045;52.268;10.506;2022-12-24T04:02:12;99541.72;;;8.01;100.00
32638;BME280;19045;52.268;10.506;2022-12-24T04:04:39;99543.34;;;8.02;100.00
32638;BME280;19045;52.268;10.506;2022-12-24T04:07:07;99545.50;;;8.10;100.00
32638;BME280;19045;52.268;10.506;2022-12-24T04:09:33;99548.19;;;8.15;100.00
32638;BME280;19045;52.268;10.506;2022-12-24T04:12:00;99546.06;;;8.17;100.00
32638;BME280;19045;52.268;10.506;2022-12-24T04:14:26;99550.63;;;8.21;100.00
32638;BME280;19045;52.268;10.506;2022-12-24T04:16:53;99562.94;;;8.27;100.00
32638;BME280;19045;52.268;10.506;2022-12-24T04:19:20;99563.25;;;8.31;100.00
32638;BME280;19045;52.268;10.506;2022-12-24T04:21:46;99565.13;;;8.36;100.00
32638;BME280;19045;52.268;10.506;2022-12-24T04:24:14;99574.25;;;8.40;100.00
32638;BME280;19045;52.268;10.506;2022-12-24T04:26:41;99578.53;;;8.46;100.00
32638;BME280;19045;52.268;10.506;2022-12-24T04:29:07;99576.66;;;8.46;100.00
32638;BME280;19045;52.268;10.506;2022-12-24T04:31:34;99575.09;;;8.50;100.00
32638;BME280;19045;52.268;10.506;2022-12-24T04:34:00;99569.44;;;8.52;100.00
32638;BME280;19045;52.268;10.506;2022-12-24T04:36:27;99579.09;;;8.53;100.00
32638;BME280;19045;52.268;10.506;2022-12-24T04:38:54;99581.78;;;8.53;100.00
32638;BME280;19045;52.268;10.506;2022-12-24T04:41:22;99591.94;;;8.51;100.00
32638;BME280;19045;52.268;10.506;2022-12-24T04:43:50;99596.78;;;8.54;100.00
32638;BME280;19045;52.268;10.506;2022-12-24T04:46:19;99603.19;;;8.53;100.00
32638;BME280;19045;52.268;10.506;2022-12-24T04:48:47;99602.38;;;8.52;100.00
32638;BME280;19045;52.268;10.506;2022-12-24T04:51:14;99601.06;;;8.55;100.00
32638;BME280;19045;52.268;10.506;2022-12-24T04:53:42;99605.63;;;8.54;100.00
32638;BME280;19045;52.268;10.506;2022-12-24T04:56:11;99600.50;;;8.48;100.00
32638;BME280;19045;52.268;10.506;2022-12-24T04:58:40;99603.47;;;8.51;100.00
32638;BME280;19045;52.268;10.506;2022-12-24T05:01:08;99600.50;;;8.53;100.00
32638;BME280;19045;52.268;10.506;2022-12-24T05:03:37;99607.75;;;8.57;100.00
32638;BME280;19045;52.268;10.506;2022-12-24T05:06:05;99617.41;;;8.58;100.00
32638;BME280;19045;52.268;10.506;2022-12-24T05:08:32;99613.91;;;8.58;100.00
32638;BME280;19045;52.268;10.506;2022-12-24T05:10:59;99619.81;;;8.55;100.00
32638;BME280;19045;52.268;10.506;2022-12-24T05:13:27;99619.81;;;8.55;100.00
32638;BME280;19045;52.268;10.506;2022-12-24T05:15:55;99616.56;;;8.53;100.00
32638;BME280;19045;52.268;10.506;2022-12-24T05:18:22;99623.81;;;8.57;100.00
32638;BME280;19045;52.268;10.506;2022-12-24T05:20:49;99626.22;;;8.54;100.00
32638;BME280;19045;52.268;10.506;2022-12-24T05:23:17;99636.41;;;8.57;100.00
32638;BME280;19045;52.268;10.506;2022-12-24T05:26:01;99648.16;;;8.56;100.00
32638;BME280;19045;52.268;10.506;2022-12-24T05:28:46;99657.53;;;8.53;100.00
32638;BME280;19045;52.268;10.506;2022-12-24T05:31:14;99645.75;;;8.54;100.00
32638;BME280;19045;52.268;10.506;2022-12-24T05:33:41;99657.00;;;8.56;100.00
32638;BME280;19045;52.268;10.506;2022-12-24T05:36:08;99654.03;;;8.53;100.00
32638;BME280;19045;52.268;10.506;2022-12-24T05:38:36;99655.13;;;8.57;100.00
32638;BME280;19045;52.268;10.506;2022-12-24T05:41:09;99664.78;;;8.58;100.00
32638;BME280;19045;52.268;10.506;2022-12-24T05:43:36;99668.28;;;8.58;100.00
32638;BME280;19045;52.268;10.506;2022-12-24T05:46:05;99688.31;;;8.56;100.00
32638;BME280;19045;52.268;10.506;2022-12-24T05:48:34;99670.94;;;8.63;100.00
32638;BME280;19045;52.268;10.506;2022-12-24T05:51:03;99690.50;;;8.64;100.00
32638;BME280;19045;52.268;10.506;2022-12-24T05:53:30;99694.22;;;8.63;100.00
32638;BME280;19045;52.268;10.506;2022-12-24T05:56:02;99696.38;;;8.61;100.00
32638;BME280;19045;52.268;10.506;2022-12-24T05:58:28;99703.88;;;8.64;100.00
32638;BME280;19045;52.268;10.506;2022-12-24T06:00:55;99702.81;;;8.65;100.00
32638;BME280;19045;52.268;10.506;2022-12-24T06:03:21;99704.41;;;8.61;100.00
32638;BME280;19045;52.268;10.506;2022-12-24T06:05:56;99713.78;;;8.58;100.00
32638;BME280;19045;52.268;10.506;2022-12-24T06:08:23;99716.47;;;8.63;100.00
32638;BME280;19045;52.268;10.506;2022-12-24T06:10:53;99723.16;;;8.61;100.00
32638;BME280;19045;52.268;10.506;2022-12-24T06:13:20;99730.63;;;8.59;100.00
32638;BME280;19045;52.268;10.506;2022-12-24T06:15:47;99718.31;;;8.58;100.00
32638;BME280;19045;52.268;10.506;2022-12-24T06:18:13;99736.50;;;8.56;100.00
32638;BME280;19045;52.268;10.506;2022-12-24T06:20:40;99732.72;;;8.52;100.00
32638;BME280;19045;52.268;10.506;2022-12-24T06:23:08;99732.53;;;8.58;100.00
32638;BME280;19045;52.268;10.506;2022-12-24T06:25:34;99748.81;;;8.57;100.00
32638;BME280;19045;52.268;10.506;2022-12-24T06:28:01;99729.28;;;8.56;100.00
32638;BME280;19045;52.268;10.506;2022-12-24T06:30:28;99740.22;;;8.50;100.00
32638;BME280;19045;52.268;10.506;2022-12-24T06:32:54;99734.34;;;8.48;100.00
32638;BME280;19045;52.268;10.506;2022-12-24T06:35:21;99741.78;;;8.46;100.00
32638;BME280;19045;52.268;10.506;2022-12-24T06:37:47;99752.22;;;8.42;100.00
32638;BME280;19045;52.268;10.506;2022-12-24T06:40:15;99753.03;;;8.43;100.00
32638;BME280;19045;52.268;10.506;2022-12-24T06:42:42;99758.91;;;8.40;100.00
32638;BME280;19045;52.268;10.506;2022-12-24T06:45:09;99753.00;;;8.38;100.00
32638;BME280;19045;52.268;10.506;2022-12-24T06:47:36;99755.41;;;8.39;100.00
32638;BME280;19045;52.268;10.506;2022-12-24T06:50:03;99771.19;;;8.36;100.00
32638;BME280;19045;52.268;10.506;2022-12-24T06:52:30;99757.56;;;8.42;100.00
32638;BME280;19045;52.268;10.506;2022-12-24T06:54:56;99764.28;;;8.45;100.00
32638;BME280;19045;52.268;10.506;2022-12-24T06:57:27;99777.91;;;8.43;100.00
32638;BME280;19045;52.268;10.506;2022-12-24T06:59:56;99783.31;;;8.48;100.00
32638;BME280;19045;52.268;10.506;2022-12-24T07:02:22;99786.53;;;8.50;100.00
32638;BME280;19045;52.268;10.506;2022-12-24T07:04:49;99783.31;;;8.48;100.00
32638;BME280;19045;52.268;10.506;2022-12-24T07:07:16;99803.41;;;8.51;100.00
32638;BME280;19045;52.268;10.506;2022-12-24T07:09:43;99808.47;;;8.52;100.00
32638;BME280;19045;52.268;10.506;2022-12-24T07:12:09;99811.97;;;8.53;100.00
32638;BME280;19045;52.268;10.506;2022-12-24T07:14:37;99807.97;;;8.55;100.00
32638;BME280;19045;52.268;10.506;2022-12-24T07:17:04;99813.31;;;8.55;100.00
32638;BME280;19045;52.268;10.506;2022-12-24T07:19:30;99819.00;;;8.64;100.00
32638;BME280;19045;52.268;10.506;2022-12-24T07:21:58;99815.31;;;8.75;100.00
32638;BME280;19045;52.268;10.506;2022-12-24T07:24:24;99824.44;;;8.79;100.00
32638;BME280;19045;52.268;10.506;2022-12-24T07:26:51;99837.28;;;8.77;100.00
32638;BME280;19045;52.268;10.506;2022-12-24T07:29:18;99856.63;;;8.84;100.00
32638;BME280;19045;52.268;10.506;2022-12-24T07:31:46;99833.78;;;8.71;100.00
32638;BME280;19045;52.268;10.506;2022-12-24T07:34:12;99840.72;;;8.67;100.00
32638;BME280;19045;52.268;10.506;2022-12-24T07:36:39;99843.63;;;8.66;100.00
32638;BME280;19045;52.268;10.506;2022-12-24T07:39:06;99858.34;;;8.63;100.00
32638;BME280;19045;52.268;10.506;2022-12-24T07:41:32;99857.03;;;8.66;100.00
32638;BME280;19045;52.268;10.506;2022-12-24T07:43:59;99869.59;;;8.65;100.00
32638;BME280;19045;52.268;10.506;2022-12-24T07:46:25;99869.91;;;8.69;100.00
32638;BME280;19045;52.268;10.506;2022-12-24T07:48:53;99873.69;;;8.73;100.00
32638;BME280;19045;52.268;10.506;2022-12-24T07:51:20;99887.34;;;8.71;100.00
32638;BME280;19045;52.268;10.506;2022-12-24T07:53:47;99894.56;;;8.71;100.00
32638;BME280;19045;52.268;10.506;2022-12-24T07:56:13;99901.25;;;8.73;100.00
32638;BME280;19045;52.268;10.506;2022-12-24T07:58:41;99902.31;;;8.72;100.00
32638;BME280;19045;52.268;10.506;2022-12-24T08:01:08;99916.28;;;8.74;100.00
32638;BME280;19045;52.268;10.506;2022-12-24T08:03:35;99902.63;;;8.76;100.00
32638;BME280;19045;52.268;10.506;2022-12-24T08:06:03;99913.31;;;8.76;100.00
32638;BME280;19045;52.268;10.506;2022-12-24T08:08:30;99921.13;;;8.77;100.00
32638;BME280;19045;52.268;10.506;2022-12-24T08:11:00;99919.53;;;8.81;100.00
32638;BME280;19045;52.268;10.506;2022-12-24T08:13:27;99915.25;;;8.80;100.00
32638;BME280;19045;52.268;10.506;2022-12-24T08:15:53;99926.19;;;8.79;100.00
32638;BME280;19045;52.268;10.506;2022-12-24T08:18:20;99922.75;;;8.83;100.00
32638;BME280;19045;52.268;10.506;2022-12-24T08:20:47;99932.44;;;8.90;100.00
32638;BME280;19045;52.268;10.506;2022-12-24T08:23:15;99940.47;;;8.90;100.00
32638;BME280;19045;52.268;10.506;2022-12-24T08:25:42;99938.31;;;8.92;100.00
32638;BME280;19045;52.268;10.506;2022-12-24T08:28:09;99935.13;;;8.90;100.00
32638;BME280;19045;52.268;10.506;2022-12-24T08:30:36;99936.25;;;8.99;100.00
32638;BME280;19045;52.268;10.506;2022-12-24T08:33:03;99944.78;;;8.96;100.00
32638;BME280;19045;52.268;10.506;2022-12-24T08:35:30;99953.63;;;8.96;100.00
32638;BME280;19045;52.268;10.506;2022-12-24T08:37:57;99955.78;;;8.94;100.00
32638;BME280;19045;52.268;10.506;2022-12-24T08:40:25;99958.47;;;8.94;100.00
32638;BME280;19045;52.268;10.506;2022-12-24T08:42:52;99953.69;;;9.01;100.00
32638;BME280;19045;52.268;10.506;2022-12-24T08:45:18;99953.72;;;9.06;100.00
32638;BME280;19045;52.268;10.506;2022-12-24T08:47:46;99966.28;;;9.01;100.00
32638;BME280;19045;52.268;10.506;2022-12-24T08:50:12;99969.38;;;9.24;100.00
32638;BME280;19045;52.268;10.506;2022-12-24T08:52:39;99963.78;;;9.98;99.58
32638;BME280;19045;52.268;10.506;2022-12-24T08:55:06;99975.94;;;10.31;95.01
32638;BME280;19045;52.268;10.506;2022-12-24T08:57:35;99981.47;;;9.89;97.02
32638;BME280;19045;52.268;10.506;2022-12-24T09:00:03;99983.94;;;9.44;99.60
32638;BME280;19045;52.268;10.506;2022-12-24T09:02:30;99983.03;;;9.28;100.00
32638;BME280;19045;52.268;10.506;2022-12-24T09:04:57;99988.31;;;9.13;100.00
32638;BME280;19045;52.268;10.506;2022-12-24T09:07:24;99985.63;;;9.13;100.00
32638;BME280;19045;52.268;10.506;2022-12-24T09:09:50;99990.69;;;9.09;100.00
32638;BME280;19045;52.268;10.506;2022-12-24T09:12:17;99992.31;;;9.10;100.00
32638;BME280;19045;52.268;10.506;2022-12-24T09:14:45;99997.63;;;9.05;100.00
32638;BME280;19045;52.268;10.506;2022-12-24T09:17:12;100003.56;;;9.07;100.00
32638;BME280;19045;52.268;10.506;2022-12-24T09:19:38;100008.66;;;9.09;100.00
32638;BME280;19045;52.268;10.506;2022-12-24T09:22:05;100011.00;;;9.00;100.00
32638;BME280;19045;52.268;10.506;2022-12-24T09:24:32;100005.66;;;9.00;100.00
32638;BME280;19045;52.268;10.506;2022-12-24T09:27:00;100022.22;;;8.97;100.00
32638;BME280;19045;52.268;10.506;2022-12-24T09:29:28;100021.88;;;8.89;100.00
32638;BME280;19045;52.268;10.506;2022-12-24T09:31:56;100025.56;;;8.77;100.00
32638;BME280;19045;52.268;10.506;2022-12-24T09:34:23;100027.13;;;8.73;100.00
32638;BME280;19045;52.268;10.506;2022-12-24T09:36:50;100025.25;;;8.74;100.00
32638;BME280;19045;52.268;10.506;2022-12-24T09:39:18;100022.53;;;8.69;100.00
32638;BME280;19045;52.268;10.506;2022-12-24T09:41:53;100024.59;;;8.62;100.00
32638;BME280;19045;52.268;10.506;2022-12-24T09:44:32;100034.31;;;8.68;100.00
32638;BME280;19045;52.268;10.506;2022-12-24T09:47:05;100040.06;;;8.81;100.00
32638;BME280;19045;52.268;10.506;2022-12-24T09:49:39;100039.56;;;8.85;100.00
32638;BME280;19045;52.268;10.506;2022-12-24T09:52:09;100052.50;;;8.98;100.00
32638;BME280;19045;52.268;10.506;2022-12-24T09:54:40;100060.78;;;8.96;100.00
32638;BME280;19045;52.268;10.506;2022-12-24T09:57:14;100055.19;;;8.98;100.00
32638;BME280;19045;52.268;10.506;2022-12-24T09:59:44;100068.38;;;9.04;100.00
32638;BME280;19045;52.268;10.506;2022-12-24T10:02:15;100067.66;;;9.19;100.00
32638;BME280;19045;52.268;10.506;2022-12-24T10:04:43;100068.31;;;9.73;100.00
32638;BME280;19045;52.268;10.506;2022-12-24T10:07:22;100066.69;;;12.06;93.59
32638;BME280;19045;52.268;10.506;2022-12-24T10:10:00;100064.03;;;13.27;84.44
32638;BME280;19045;52.268;10.506;2022-12-24T10:12:32;100069.28;;;12.70;86.15
32638;BME280;19045;52.268;10.506;2022-12-24T10:15:11;100070.56;;;11.39;93.42
32638;BME280;19045;52.268;10.506;2022-12-24T10:17:50;100081.72;;;10.20;100.00
32638;BME280;19045;52.268;10.506;2022-12-24T10:20:33;100075.59;;;10.45;100.00
32638;BME280;19045;52.268;10.506;2022-12-24T10:23:06;100075.97;;;11.29;96.35
32638;BME280;19045;52.268;10.506;2022-12-24T10:25:40;100081.97;;;12.69;87.21
32638;BME280;19045;52.268;10.506;2022-12-24T10:28:13;100083.41;;;13.29;83.27
32638;BME280;19045;52.268;10.506;2022-12-24T10:30:41;100086.16;;;12.41;86.41
32638;BME280;19045;52.268;10.506;2022-12-24T10:33:17;100095.59;;;11.50;91.34
32638;BME280;19045;52.268;10.506;2022-12-24T10:35:47;100092.59;;;10.75;96.37
32638;BME280;19045;52.268;10.506;2022-12-24T10:38:16;100097.09;;;10.55;98.82
32638;BME280;19045;52.268;10.506;2022-12-24T10:40:44;100101.69;;;10.59;98.32
32638;BME280;19045;52.268;10.506;2022-12-24T10:43:14;100101.75;;;10.89;96.61
32638;BME280;19045;52.268;10.506;2022-12-24T10:45:45;100106.34;;;11.45;93.33
32638;BME280;19045;52.268;10.506;2022-12-24T10:48:20;100107.69;;;11.27;93.81
32638;BME280;19045;52.268;10.506;2022-12-24T10:50:55;100111.44;;;11.76;91.68
32638;BME280;19045;52.268;10.506;2022-12-24T10:53:30;100114.06;;;10.60;97.06
32638;BME280;19045;52.268;10.506;2022-12-24T10:56:04;100118.53;;;10.29;99.96
32638;BME280;19045;52.268;10.506;2022-12-24T10:58:31;100111.31;;;10.40;100.00
32638;BME280;19045;52.268;10.506;2022-12-24T11:00:59;100115.50;;;10.16;100.00
32638;BME280;19045;52.268;10.506;2022-12-24T11:03:30;100116.59;;;10.20;100.00
32638;BME280;19045;52.268;10.506;2022-12-24T11:06:07;100119.91;;;9.95;100.00
32638;BME280;19045;52.268;10.506;2022-12-24T11:08:34;100118.50;;;9.82;100.00
32638;BME280;19045;52.268;10.506;2022-12-24T11:11:03;100121.94;;;9.73;100.00
32638;BME280;19045;52.268;10.506;2022-12-24T11:13:32;100117.03;;;9.60;100.00
32638;BME280;19045;52.268;10.506;2022-12-24T11:16:03;100123.50;;;9.64;100.00
32638;BME280;19045;52.268;10.506;2022-12-24T11:18:34;100124.59;;;9.68;100.00
32638;BME280;19045;52.268;10.506;2022-12-24T11:21:05;100129.69;;;9.64;100.00
32638;BME280;19045;52.268;10.506;2022-12-24T11:23:33;100124.31;;;9.64;100.00
32638;BME280;19045;52.268;10.506;2022-12-24T11:26:00;100128.88;;;9.64;100.00
32638;BME280;19045;52.268;10.506;2022-12-24T11:28:28;100117.63;;;9.67;100.00
32638;BME280;19045;52.268;10.506;2022-12-24T11:31:16;100130.50;;;9.70;100.00
32638;BME280;19045;52.268;10.506;2022-12-24T11:33:47;100125.69;;;9.72;100.00
32638;BME280;19045;52.268;10.506;2022-12-24T11:36:16;100136.94;;;9.69;100.00
32638;BME280;19045;52.268;10.506;2022-12-24T11:38:51;100131.06;;;9.72;100.00
32638;BME280;19045;52.268;10.506;2022-12-24T11:41:18;100126.72;;;9.66;100.00
32638;BME280;19045;52.268;10.506;2022-12-24T11:43:46;100126.72;;;9.66;100.00
32638;BME280;19045;52.268;10.506;2022-12-24T11:46:35;100136.41;;;9.67;100.00
32638;BME280;19045;52.268;10.506;2022-12-24T11:49:15;100141.00;;;9.76;100.00
32638;BME280;19045;52.268;10.506;2022-12-24T11:52:00;100135.94;;;9.80;100.00
32638;BME280;19045;52.268;10.506;2022-12-24T11:54:30;100140.56;;;9.95;100.00
32638;BME280;19045;52.268;10.506;2022-12-24T11:57:00;100137.59;;;9.86;100.00
32638;BME280;19045;52.268;10.506;2022-12-24T11:59:30;100134.38;;;9.84;100.00
32638;BME280;19045;52.268;10.506;2022-12-24T12:02:03;100124.41;;;9.79;100.00
32638;BME280;19045;52.268;10.506;2022-12-24T12:04:40;100125.16;;;9.70;100.00
32638;BME280;19045;52.268;10.506;2022-12-24T12:07:11;100133.38;;;9.58;100.00
32638;BME280;19045;52.268;10.506;2022-12-24T12:09:42;100137.53;;;9.39;100.00
32638;BME280;19045;52.268;10.506;2022-12-24T12:12:13;100131.03;;;9.35;100.00
32638;BME280;19045;52.268;10.506;2022-12-24T12:14:44;100131.09;;;9.40;100.00
32638;BME280;19045;52.268;10.506;2022-12-24T12:17:23;100133.78;;;9.40;100.00
32638;BME280;19045;52.268;10.506;2022-12-24T12:19:56;100142.59;;;9.35;100.00
32638;BME280;19045;52.268;10.506;2022-12-24T12:22:29;100144.13;;;9.26;100.00
32638;BME280;19045;52.268;10.506;2022-12-24T12:24:59;100147.84;;;9.25;100.00
32638;BME280;19045;52.268;10.506;2022-12-24T12:27:31;100144.88;;;9.22;100.00
32638;BME280;19045;52.268;10.506;2022-12-24T12:30:01;100144.34;;;9.25;100.00
32638;BME280;19045;52.268;10.506;2022-12-24T12:32:38;100146.25;;;9.24;100.00
32638;BME280;19045;52.268;10.506;2022-12-24T12:35:17;100151.56;;;9.19;100.00
32638;BME280;19045;52.268;10.506;2022-12-24T12:37:53;100149.63;;;9.15;100.00
32638;BME280;19045;52.268;10.506;2022-12-24T12:40:29;100152.03;;;9.11;100.00
32638;BME280;19045;52.268;10.506;2022-12-24T12:43:05;100170.22;;;9.09;100.00
32638;BME280;19045;52.268;10.506;2022-12-24T12:45:38;100170.50;;;9.08;100.00
32638;BME280;19045;52.268;10.506;2022-12-24T12:48:20;100165.56;;;9.00;100.00
32638;BME280;19045;52.268;10.506;2022-12-24T12:50:51;100170.63;;;8.96;100.00
32638;BME280;19045;52.268;10.506;2022-12-24T12:53:30;100180.78;;;8.94;100.00
32638;BME280;19045;52.268;10.506;2022-12-24T12:56:07;100194.19;;;8.94;100.00
32638;BME280;19045;52.268;10.506;2022-12-24T12:58:42;100182.34;;;8.90;100.00